createdAt,value
2022-10-26T00:01:23.486Z,100.00
2022-10-26T00:03:50.100Z,100.00
2022-10-26T00:06:22.299Z,100.00
2022-10-26T00:08:48.713Z,100.00
2022-10-26T00:11:16.218Z,100.00
2022-10-26T00:13:42.963Z,100.00
2022-10-26T00:16:24.243Z,100.00
2022-10-26T00:18:50.763Z,100.00
2022-10-26T00:21:17.852Z,100.00
2022-10-26T00:23:44.460Z,100.00
2022-10-26T00:26:11.352Z,100.00
2022-10-26T00:28:37.827Z,100.00
2022-10-26T00:31:08.748Z,100.00
2022-10-26T00:33:35.939Z,100.00
2022-10-26T00:36:02.524Z,100.00
2022-10-26T00:38:28.924Z,100.00
2022-10-26T00:43:27.204Z,100.00
2022-10-26T00:45:56.077Z,100.00
2022-10-26T00:48:26.127Z,100.00
2022-10-26T00:50:54.096Z,100.00
2022-10-26T00:53:20.808Z,100.00
2022-10-26T00:55:50.991Z,100.00
2022-10-26T00:58:18.581Z,100.00
2022-10-26T01:00:45.208Z,100.00
2022-10-26T01:03:11.825Z,100.00
2022-10-26T01:05:42.040Z,100.00
2022-10-26T01:08:09.398Z,100.00
2022-10-26T01:10:37.823Z,100.00
2022-10-26T01:13:05.002Z,100.00
2022-10-26T01:15:56.552Z,100.00
2022-10-26T01:18:54.169Z,100.00
2022-10-26T01:21:33.679Z,100.00
2022-10-26T01:24:10.199Z,100.00
2022-10-26T01:27:05.214Z,100.00
2022-10-26T01:29:58.520Z,100.00
2022-10-26T01:32:28.753Z,100.00
2022-10-26T01:35:27.222Z,100.00
2022-10-26T01:38:19.644Z,100.00
2022-10-26T01:41:05.907Z,100.00
2022-10-26T01:43:36.591Z,100.00
2022-10-26T01:46:06.372Z,100.00
2022-10-26T01:48:34.317Z,100.00
2022-10-26T01:51:03.129Z,100.00
2022-10-26T01:53:30.269Z,100.00
2022-10-26T01:55:57.003Z,100.00
2022-10-26T01:59:01.174Z,100.00
2022-10-26T02:01:35.981Z,100.00
2022-10-26T02:04:21.063Z,100.00
2022-10-26T02:07:07.227Z,100.00
2022-10-26T02:09:48.751Z,100.00
2022-10-26T02:12:27.111Z,100.00
2022-10-26T02:15:31.516Z,100.00
2022-10-26T02:18:20.477Z,100.00
2022-10-26T02:20:53.879Z,100.00
2022-10-26T02:23:24.526Z,100.00
2022-10-26T02:25:57.129Z,100.00
2022-10-26T02:28:30.971Z,100.00
2022-10-26T02:30:59.581Z,100.00
2022-10-26T02:33:30.109Z,100.00
2022-10-26T02:36:00.798Z,100.00
2022-10-26T02:38:30.447Z,100.00
2022-10-26T02:40:58.054Z,100.00
2022-10-26T02:43:26.558Z,100.00
2022-10-26T02:45:57.996Z,100.00
2022-10-26T02:48:24.455Z,100.00
2022-10-26T02:50:56.515Z,100.00
2022-10-26T02:53:31.829Z,100.00
2022-10-26T02:56:03.791Z,100.00
2022-10-26T02:58:37.105Z,100.00
2022-10-26T03:01:04.096Z,100.00
2022-10-26T03:03:30.521Z,100.00
2022-10-26T03:05:56.848Z,100.00
2022-10-26T03:08:23.928Z,100.00
2022-10-26T03:10:50.361Z,100.00
2022-10-26T03:13:16.691Z,100.00
2022-10-26T03:15:43.033Z,100.00
2022-10-26T03:18:10.486Z,100.00
2022-10-26T03:20:36.878Z,100.00
2022-10-26T03:23:03.271Z,100.00
2022-10-26T03:25:29.699Z,100.00
2022-10-26T03:27:58.007Z,100.00
2022-10-26T03:30:24.491Z,100.00
2022-10-26T03:32:50.967Z,100.00
2022-10-26T03:35:17.455Z,100.00
2022-10-26T03:37:43.891Z,100.00
2022-10-26T03:40:10.966Z,100.00
2022-10-26T03:42:37.506Z,100.00
2022-10-26T03:45:04.661Z,100.00
2022-10-26T03:47:31.013Z,100.00
2022-10-26T03:49:57.368Z,100.00
2022-10-26T03:52:24.665Z,100.00
2022-10-26T03:54:51.946Z,100.00
2022-10-26T03:57:18.649Z,100.00
2022-10-26T03:59:45.075Z,100.00
2022-10-26T04:02:11.993Z,100.00
2022-10-26T04:04:38.422Z,100.00
2022-10-26T04:07:04.821Z,100.00
2022-10-26T04:09:31.169Z,100.00
2022-10-26T04:11:57.507Z,100.00
2022-10-26T04:14:23.966Z,100.00
2022-10-26T04:16:50.304Z,100.00
2022-10-26T04:19:16.727Z,100.00
2022-10-26T04:21:43.071Z,100.00
2022-10-26T04:24:10.966Z,100.00
2022-10-26T04:26:37.519Z,100.00
2022-10-26T04:29:06.744Z,100.00
2022-10-26T04:31:33.549Z,100.00
2022-10-26T04:33:59.898Z,100.00
2022-10-26T04:36:26.254Z,100.00
2022-10-26T04:38:52.606Z,100.00
2022-10-26T04:41:19.002Z,100.00
2022-10-26T04:43:45.346Z,100.00
2022-10-26T04:46:16.648Z,100.00
2022-10-26T04:48:43.347Z,100.00
2022-10-26T04:51:09.689Z,100.00
2022-10-26T04:53:36.069Z,100.00
2022-10-26T04:56:02.503Z,100.00
2022-10-26T04:58:29.272Z,100.00
2022-10-26T05:00:55.814Z,100.00
2022-10-26T05:03:22.361Z,100.00
2022-10-26T05:05:48.765Z,100.00
2022-10-26T05:08:15.858Z,100.00
2022-10-26T05:10:42.599Z,100.00
2022-10-26T05:13:09.648Z,100.00
2022-10-26T05:15:36.014Z,100.00
2022-10-26T05:18:05.382Z,100.00
2022-10-26T05:20:34.861Z,100.00
2022-10-26T05:23:04.245Z,100.00
2022-10-26T05:25:36.487Z,100.00
2022-10-26T05:28:05.521Z,100.00
2022-10-26T05:30:32.304Z,100.00
2022-10-26T05:33:02.223Z,100.00
2022-10-26T05:35:29.211Z,100.00
2022-10-26T05:37:55.561Z,100.00
2022-10-26T05:40:22.331Z,100.00
2022-10-26T05:42:48.956Z,100.00
2022-10-26T05:45:15.548Z,100.00
2022-10-26T05:47:43.111Z,100.00
2022-10-26T05:50:10.544Z,100.00
2022-10-26T05:52:41.414Z,100.00
2022-10-26T05:55:09.247Z,100.00
2022-10-26T05:57:36.872Z,100.00
2022-10-26T06:00:14.937Z,100.00
2022-10-26T06:02:50.511Z,100.00
2022-10-26T06:05:25.748Z,100.00
2022-10-26T06:07:52.608Z,100.00
2022-10-26T06:10:19.595Z,100.00
2022-10-26T06:12:46.432Z,100.00
2022-10-26T06:15:21.650Z,100.00
2022-10-26T06:18:04.332Z,100.00
2022-10-26T06:20:44.805Z,100.00
2022-10-26T06:23:40.177Z,100.00
2022-10-26T06:26:25.702Z,100.00
2022-10-26T06:29:21.876Z,100.00
2022-10-26T06:31:48.452Z,100.00
2022-10-26T06:34:39.334Z,100.00
2022-10-26T06:37:07.417Z,100.00
2022-10-26T06:39:38.756Z,100.00
2022-10-26T06:42:05.500Z,100.00
2022-10-26T06:44:33.368Z,100.00
2022-10-26T06:47:07.227Z,100.00
2022-10-26T06:50:09.507Z,100.00
2022-10-26T06:52:42.861Z,100.00
2022-10-26T06:55:16.237Z,100.00
2022-10-26T06:57:43.954Z,100.00
2022-10-26T07:00:25.191Z,100.00
2022-10-26T07:02:52.158Z,100.00
2022-10-26T07:05:18.827Z,100.00
2022-10-26T07:07:47.026Z,100.00
2022-10-26T07:10:14.915Z,100.00
2022-10-26T07:12:41.304Z,100.00
2022-10-26T07:15:11.978Z,100.00
2022-10-26T07:17:46.518Z,100.00
2022-10-26T07:20:13.929Z,100.00
2022-10-26T07:22:40.840Z,100.00
2022-10-26T07:25:08.049Z,100.00
2022-10-26T07:27:34.730Z,100.00
2022-10-26T07:30:01.792Z,100.00
2022-10-26T07:32:28.414Z,100.00
2022-10-26T07:34:54.782Z,100.00
2022-10-26T07:37:21.224Z,100.00
2022-10-26T07:39:47.664Z,100.00
2022-10-26T07:42:15.217Z,100.00
2022-10-26T07:44:41.570Z,100.00
2022-10-26T07:47:08.017Z,100.00
2022-10-26T07:49:34.596Z,100.00
2022-10-26T07:52:00.961Z,100.00
2022-10-26T07:54:27.346Z,100.00
2022-10-26T07:56:53.822Z,100.00
2022-10-26T07:59:20.201Z,100.00
2022-10-26T08:01:46.615Z,100.00
2022-10-26T08:04:12.986Z,100.00
2022-10-26T08:06:39.323Z,100.00
2022-10-26T08:09:05.795Z,100.00
2022-10-26T08:11:32.199Z,100.00
2022-10-26T08:13:58.613Z,100.00
2022-10-26T08:16:25.140Z,100.00
2022-10-26T08:18:51.817Z,100.00
2022-10-26T08:21:22.104Z,100.00
2022-10-26T08:23:56.737Z,100.00
2022-10-26T08:26:23.626Z,100.00
2022-10-26T08:28:50.262Z,100.00
2022-10-26T08:31:16.643Z,100.00
2022-10-26T08:33:45.016Z,100.00
2022-10-26T08:36:12.326Z,100.00
2022-10-26T08:38:38.682Z,100.00
2022-10-26T08:41:09.130Z,100.00
2022-10-26T08:44:07.685Z,100.00
2022-10-26T08:46:39.711Z,100.00
2022-10-26T08:49:30.262Z,100.00
2022-10-26T08:52:01.659Z,100.00
2022-10-26T08:54:44.987Z,100.00
2022-10-26T08:57:23.143Z,100.00
2022-10-26T09:00:06.501Z,100.00
2022-10-26T09:02:33.023Z,100.00
2022-10-26T09:05:00.271Z,100.00
2022-10-26T09:07:57.076Z,100.00
2022-10-26T09:10:49.167Z,100.00
2022-10-26T09:13:33.562Z,100.00
2022-10-26T09:16:21.209Z,100.00
2022-10-26T09:19:19.920Z,100.00
2022-10-26T09:21:55.303Z,100.00
2022-10-26T09:24:38.175Z,100.00
2022-10-26T09:27:26.154Z,100.00
2022-10-26T09:29:53.749Z,100.00
2022-10-26T09:32:24.350Z,100.00
2022-10-26T09:34:55.190Z,100.00
2022-10-26T09:37:27.543Z,100.00
2022-10-26T09:40:24.971Z,100.00
2022-10-26T09:42:58.059Z,100.00
2022-10-26T09:45:24.347Z,100.00
2022-10-26T09:47:53.764Z,100.00
2022-10-26T09:50:37.358Z,100.00
2022-10-26T09:53:04.062Z,100.00
2022-10-26T09:55:32.578Z,100.00
2022-10-26T09:58:04.322Z,100.00
2022-10-26T10:00:33.137Z,100.00
2022-10-26T10:02:59.650Z,100.00
2022-10-26T10:08:20.239Z,100.00
2022-10-26T10:11:03.598Z,100.00
2022-10-26T10:13:32.936Z,100.00
2022-10-26T10:16:13.794Z,100.00
2022-10-26T10:18:53.807Z,100.00
2022-10-26T10:21:20.322Z,100.00
2022-10-26T10:23:54.497Z,100.00
2022-10-26T10:26:21.008Z,100.00
2022-10-26T10:29:01.300Z,100.00
2022-10-26T10:31:30.277Z,100.00
2022-10-26T10:33:56.790Z,100.00
2022-10-26T10:36:26.346Z,100.00
2022-10-26T10:38:54.098Z,100.00
2022-10-26T10:41:36.418Z,100.00
2022-10-26T10:44:14.639Z,100.00
2022-10-26T10:46:41.040Z,100.00
2022-10-26T10:49:20.095Z,100.00
2022-10-26T10:51:48.188Z,100.00
2022-10-26T10:54:37.381Z,100.00
2022-10-26T10:57:22.217Z,100.00
2022-10-26T10:59:54.655Z,100.00
2022-10-26T11:02:30.357Z,100.00
2022-10-26T11:05:28.549Z,100.00
2022-10-26T11:08:03.019Z,100.00
2022-10-26T11:10:36.084Z,100.00
2022-10-26T11:13:13.423Z,100.00
2022-10-26T11:15:42.335Z,100.00
2022-10-26T11:18:22.193Z,100.00
2022-10-26T11:23:48.680Z,100.00
2022-10-26T11:26:26.955Z,100.00
2022-10-26T11:29:06.444Z,100.00
2022-10-26T11:31:44.053Z,100.00
2022-10-26T11:34:28.898Z,100.00
2022-10-26T11:37:30.104Z,100.00
2022-10-26T11:40:03.104Z,100.00
2022-10-26T11:42:48.398Z,100.00
2022-10-26T11:45:25.936Z,100.00
2022-10-26T11:48:04.811Z,100.00
2022-10-26T11:50:39.893Z,100.00
2022-10-26T11:53:14.868Z,100.00
2022-10-26T11:55:42.245Z,100.00
2022-10-26T11:58:11.750Z,100.00
2022-10-26T12:00:49.225Z,97.68
2022-10-26T12:03:21.799Z,96.75
2022-10-26T12:05:51.964Z,97.09
2022-10-26T12:08:40.627Z,94.84
2022-10-26T12:11:21.125Z,94.80
2022-10-26T12:13:52.686Z,95.32
2022-10-26T12:16:38.377Z,92.75
2022-10-26T12:19:13.276Z,92.16
2022-10-26T12:21:42.260Z,92.50
2022-10-26T12:24:23.805Z,91.84
2022-10-26T12:26:55.831Z,91.42
2022-10-26T12:29:28.893Z,91.04
2022-10-26T12:31:55.929Z,91.18
2022-10-26T12:34:29.563Z,91.23
2022-10-26T12:36:55.906Z,89.92
2022-10-26T12:39:40.392Z,89.80
2022-10-26T12:42:09.926Z,88.93
2022-10-26T12:45:00.153Z,89.93
2022-10-26T12:47:29.698Z,89.02
2022-10-26T12:50:02.284Z,88.52
2022-10-26T12:52:55.061Z,89.28
2022-10-26T12:55:38.444Z,88.85
2022-10-26T12:58:26.170Z,88.26
2022-10-26T13:00:58.578Z,88.66
2022-10-26T13:03:56.645Z,89.28
2022-10-26T13:06:58.302Z,88.97
2022-10-26T13:09:29.142Z,89.05
2022-10-26T13:11:57.865Z,89.57
2022-10-26T13:14:28.022Z,88.62
2022-10-26T13:16:55.003Z,89.10
2022-10-26T13:19:26.098Z,88.75
2022-10-26T13:21:53.221Z,88.49
2022-10-26T13:24:24.052Z,88.04
2022-10-26T13:27:05.638Z,88.08
2022-10-26T13:29:33.041Z,87.73
2022-10-26T13:32:00.144Z,87.72
2022-10-26T13:34:31.379Z,88.06
2022-10-26T13:37:15.804Z,87.98
2022-10-26T13:39:48.559Z,87.71
2022-10-26T13:42:27.927Z,86.29
2022-10-26T13:44:56.089Z,86.60
2022-10-26T13:47:43.205Z,87.19
2022-10-26T13:50:17.821Z,87.17
2022-10-26T13:52:52.110Z,86.12
2022-10-26T13:55:27.179Z,86.82
2022-10-26T13:58:09.886Z,86.88
2022-10-26T14:00:36.729Z,86.64
2022-10-26T14:03:14.072Z,87.42
2022-10-26T14:05:48.661Z,87.40
2022-10-26T14:08:19.305Z,87.68
2022-10-26T14:10:48.498Z,87.92
2022-10-26T14:13:21.232Z,87.89
2022-10-26T14:15:47.747Z,87.81
2022-10-26T14:18:19.217Z,86.76
2022-10-26T14:20:55.136Z,86.47
2022-10-26T14:23:37.853Z,86.21
2022-10-26T14:26:05.073Z,85.87
2022-10-26T14:28:38.713Z,87.15
2022-10-26T14:31:21.959Z,86.06
2022-10-26T14:33:48.431Z,85.19
2022-10-26T14:36:16.704Z,85.63
2022-10-26T14:38:49.848Z,86.31
2022-10-26T14:41:17.914Z,86.93
2022-10-26T14:43:45.805Z,87.24
2022-10-26T14:46:17.425Z,87.36
2022-10-26T14:48:52.602Z,87.42
2022-10-26T14:51:21.819Z,87.02
2022-10-26T14:53:51.244Z,86.83
2022-10-26T14:56:22.225Z,87.29
2022-10-26T14:58:48.821Z,87.98
2022-10-26T15:01:16.478Z,87.75
2022-10-26T15:03:48.473Z,87.82
2022-10-26T15:06:31.228Z,88.22
2022-10-26T15:08:59.813Z,88.27
2022-10-26T15:11:31.624Z,88.91
2022-10-26T15:13:58.657Z,88.44
2022-10-26T15:16:27.886Z,88.76
2022-10-26T15:18:58.446Z,89.49
2022-10-26T15:21:29.524Z,88.43
2022-10-26T15:23:57.764Z,89.15
2022-10-26T15:26:24.565Z,89.49
2022-10-26T15:28:52.765Z,90.01
2022-10-26T15:31:19.086Z,90.61
2022-10-26T15:33:51.537Z,90.33
2022-10-26T15:36:19.188Z,90.37
2022-10-26T15:38:48.103Z,89.76
2022-10-26T15:41:23.862Z,91.38
2022-10-26T15:43:53.286Z,91.80
2022-10-26T15:46:19.949Z,91.98
2022-10-26T15:48:54.628Z,92.13
2022-10-26T15:51:21.552Z,92.35
2022-10-26T15:53:48.350Z,92.91
2022-10-26T15:56:17.550Z,94.03
2022-10-26T15:58:44.152Z,93.63
2022-10-26T16:01:17.141Z,93.12
2022-10-26T16:03:44.318Z,93.79
2022-10-26T16:06:22.464Z,94.00
2022-10-26T16:08:51.665Z,94.27
2022-10-26T16:11:18.137Z,94.73
2022-10-26T16:13:44.720Z,95.30
2022-10-26T16:16:18.583Z,95.53
2022-10-26T16:18:45.850Z,96.13
2022-10-26T16:21:14.231Z,96.38
2022-10-26T16:23:41.180Z,96.77
2022-10-26T16:26:07.827Z,96.62
2022-10-26T16:28:34.936Z,97.16
2022-10-26T16:31:02.619Z,98.47
2022-10-26T16:33:29.061Z,100.00
2022-10-26T16:35:59.686Z,100.00
2022-10-26T16:38:26.876Z,100.00
2022-10-26T16:41:04.629Z,100.00
2022-10-26T16:43:41.912Z,100.00
2022-10-26T16:46:14.451Z,100.00
2022-10-26T16:48:42.577Z,100.00
2022-10-26T16:51:23.481Z,100.00
2022-10-26T16:53:54.559Z,100.00
2022-10-26T16:56:23.347Z,100.00
2022-10-26T16:58:50.155Z,100.00
2022-10-26T17:01:18.881Z,100.00
2022-10-26T17:03:50.463Z,100.00
2022-10-26T17:06:17.312Z,100.00
2022-10-26T17:08:44.015Z,100.00
2022-10-26T17:11:14.048Z,100.00
2022-10-26T17:13:40.841Z,100.00
2022-10-26T17:16:14.241Z,100.00
2022-10-26T17:18:41.775Z,100.00
2022-10-26T17:21:12.963Z,100.00
2022-10-26T17:23:39.344Z,100.00
2022-10-26T17:26:09.201Z,100.00
2022-10-26T17:28:36.178Z,100.00
2022-10-26T17:31:07.080Z,100.00
2022-10-26T17:33:38.240Z,100.00
2022-10-26T17:36:06.438Z,100.00
2022-10-26T17:38:34.979Z,100.00
2022-10-26T17:41:02.936Z,100.00
2022-10-26T17:43:31.091Z,100.00
2022-10-26T17:46:01.787Z,100.00
2022-10-26T17:48:30.385Z,100.00
2022-10-26T17:51:04.878Z,100.00
2022-10-26T17:53:31.763Z,100.00
2022-10-26T17:56:10.046Z,100.00
2022-10-26T17:58:36.779Z,100.00
2022-10-26T18:01:11.652Z,100.00
2022-10-26T18:03:38.571Z,100.00
2022-10-26T18:06:09.527Z,100.00
2022-10-26T18:08:37.648Z,100.00
2022-10-26T18:11:05.388Z,100.00
2022-10-26T18:13:33.972Z,100.00
2022-10-26T18:16:15.291Z,100.00
2022-10-26T18:18:46.385Z,100.00
2022-10-26T18:21:14.931Z,100.00
2022-10-26T18:23:41.286Z,100.00
2022-10-26T18:26:12.877Z,100.00
2022-10-26T18:28:40.464Z,100.00
2022-10-26T18:31:08.954Z,100.00
2022-10-26T18:33:35.831Z,100.00
2022-10-26T18:36:07.561Z,100.00
2022-10-26T18:38:34.764Z,100.00
2022-10-26T18:41:01.711Z,100.00
2022-10-26T18:43:29.388Z,100.00
2022-10-26T18:46:09.935Z,100.00
2022-10-26T18:48:36.930Z,100.00
2022-10-26T18:51:11.853Z,100.00
2022-10-26T18:53:39.781Z,100.00
2022-10-26T18:56:08.978Z,100.00
2022-10-26T18:58:38.052Z,100.00
2022-10-26T19:01:22.543Z,100.00
2022-10-26T19:03:57.214Z,100.00
2022-10-26T19:06:26.718Z,100.00
2022-10-26T19:08:53.476Z,100.00
2022-10-26T19:11:21.812Z,100.00
2022-10-26T19:13:50.152Z,100.00
2022-10-26T19:16:33.480Z,100.00
2022-10-26T19:19:08.914Z,100.00
2022-10-26T19:21:36.598Z,100.00
2022-10-26T19:24:03.231Z,100.00
2022-10-26T19:26:36.007Z,100.00
2022-10-26T19:29:06.667Z,100.00
2022-10-26T19:31:33.702Z,100.00
2022-10-26T19:34:01.485Z,100.00
2022-10-26T19:36:28.367Z,100.00
2022-10-26T19:38:55.720Z,100.00
2022-10-26T19:41:23.851Z,100.00
2022-10-26T19:43:50.924Z,100.00
2022-10-26T19:46:20.993Z,100.00
2022-10-26T19:48:53.065Z,100.00
2022-10-26T19:51:20.059Z,100.00
2022-10-26T19:53:46.728Z,100.00
2022-10-26T19:56:14.457Z,100.00
2022-10-26T19:58:42.246Z,100.00
2022-10-26T20:01:10.109Z,100.00
2022-10-26T20:03:37.275Z,100.00
2022-10-26T20:06:08.065Z,100.00
2022-10-26T20:08:38.300Z,100.00
2022-10-26T20:11:08.939Z,100.00
2022-10-26T20:13:38.946Z,100.00
2022-10-26T20:16:06.940Z,100.00
2022-10-26T20:18:33.567Z,100.00
2022-10-26T20:21:00.151Z,100.00
2022-10-26T20:23:26.627Z,100.00
2022-10-26T20:25:53.116Z,100.00
2022-10-26T20:28:20.115Z,100.00
2022-10-26T20:30:48.317Z,100.00
2022-10-26T20:33:14.673Z,100.00
2022-10-26T20:35:41.035Z,100.00
2022-10-26T20:38:15.268Z,100.00
2022-10-26T20:40:41.977Z,100.00
2022-10-26T20:43:10.107Z,100.00
2022-10-26T20:45:36.770Z,100.00
2022-10-26T20:48:03.380Z,100.00
2022-10-26T20:50:30.459Z,100.00
2022-10-26T20:53:17.480Z,100.00
2022-10-26T20:55:53.611Z,100.00
2022-10-26T20:58:43.709Z,100.00
2022-10-26T21:01:19.197Z,100.00
2022-10-26T21:03:45.643Z,100.00
2022-10-26T21:06:12.140Z,100.00
2022-10-26T21:08:38.460Z,100.00
2022-10-26T21:11:07.733Z,100.00
2022-10-26T21:13:34.095Z,100.00
2022-10-26T21:16:04.033Z,100.00
2022-10-26T21:18:32.035Z,100.00
2022-10-26T21:20:59.980Z,100.00
2022-10-26T21:23:31.050Z,100.00
2022-10-26T21:25:57.469Z,100.00
2022-10-26T21:28:23.900Z,100.00
2022-10-26T21:30:50.382Z,100.00
2022-10-26T21:33:18.894Z,100.00
2022-10-26T21:35:54.492Z,100.00
2022-10-26T21:38:20.895Z,100.00
2022-10-26T21:40:47.247Z,100.00
2022-10-26T21:43:13.644Z,100.00
2022-10-26T21:45:39.996Z,100.00
2022-10-26T21:48:06.368Z,100.00
2022-10-26T21:50:32.708Z,100.00
2022-10-26T21:52:59.052Z,100.00
2022-10-26T21:55:25.419Z,100.00
2022-10-26T21:57:53.305Z,100.00
2022-10-26T22:00:19.678Z,100.00
2022-10-26T22:02:46.050Z,100.00
2022-10-26T22:05:12.461Z,100.00
2022-10-26T22:07:38.867Z,100.00
2022-10-26T22:10:12.893Z,100.00
2022-10-26T22:12:39.257Z,100.00
2022-10-26T22:15:06.219Z,100.00
2022-10-26T22:17:36.006Z,100.00
2022-10-26T22:20:02.390Z,100.00
2022-10-26T22:22:29.416Z,100.00
2022-10-26T22:24:55.851Z,100.00
2022-10-26T22:27:22.190Z,100.00
2022-10-26T22:29:48.629Z,100.00
2022-10-26T22:32:14.973Z,100.00
2022-10-26T22:34:41.334Z,100.00
2022-10-26T22:37:07.691Z,100.00
2022-10-26T22:39:34.028Z,100.00
2022-10-26T22:42:00.370Z,100.00
2022-10-26T22:44:26.709Z,100.00
2022-10-26T22:46:53.025Z,100.00
2022-10-26T22:49:19.418Z,100.00
2022-10-26T22:51:46.067Z,100.00
2022-10-26T22:54:13.127Z,100.00
2022-10-26T22:56:39.475Z,100.00
2022-10-26T22:59:06.230Z,100.00
2022-10-26T23:01:37.811Z,100.00
2022-10-26T23:04:04.674Z,100.00
2022-10-26T23:06:31.956Z,100.00
2022-10-26T23:08:59.211Z,100.00
2022-10-26T23:11:27.306Z,100.00
2022-10-26T23:13:58.961Z,100.00
2022-10-26T23:16:26.128Z,100.00
2022-10-26T23:18:55.365Z,100.00
2022-10-26T23:21:24.146Z,100.00
2022-10-26T23:23:50.678Z,100.00
2022-10-26T23:26:20.984Z,100.00
2022-10-26T23:28:49.064Z,100.00
2022-10-26T23:31:20.724Z,100.00
2022-10-26T23:33:49.317Z,100.00
2022-10-26T23:36:15.737Z,100.00
2022-10-26T23:38:42.136Z,100.00
2022-10-26T23:41:10.830Z,100.00
2022-10-26T23:43:39.679Z,100.00
2022-10-26T23:46:06.017Z,100.00
2022-10-26T23:48:32.588Z,100.00
2022-10-26T23:50:58.956Z,100.00
2022-10-26T23:53:26.023Z,100.00
2022-10-26T23:55:52.555Z,100.00
2022-10-26T23:58:19.133Z,100.00
